sensor_id;sensor_type;location;lat;lon;timestamp;pressure;altitude;pressure_sealevel;temperature;humidity
13974;BME280;7060;43.770;4.008;2023-05-23T00:00:06;100872.16;;;14.76;74.11
13974;BME280;7060;43.770;4.008;2023-05-23T00:02:42;100896.22;;;14.85;74.25
13974;BME280;7060;43.770;4.008;2023-05-23T00:05:12;100767.72;;;14.14;74.23
13974;BME280;7060;43.770;4.008;2023-05-23T00:08:00;100710.28;;;13.83;74.03
13974;BME280;7060;43.770;4.008;2023-05-23T00:10:31;100930.84;;;15.13;74.38
13974;BME280;7060;43.770;4.008;2023-05-23T00:13:00;100879.69;;;14.88;73.66
13974;BME280;7060;43.770;4.008;2023-05-23T00:15:35;100815.63;;;14.51;73.85
13974;BME280;7060;43.770;4.008;2023-05-23T00:18:04;100939.38;;;15.16;74.11
13974;BME280;7060;43.770;4.008;2023-05-23T00:20:36;100792.09;;;14.37;74.03
13974;BME280;7060;43.770;4.008;2023-05-23T00:23:09;100895.16;;;15.03;74.07
13974;BME280;7060;43.770;4.008;2023-05-23T00:25:46;100913.34;;;15.09;74.33
13974;BME280;7060;43.770;4.008;2023-05-23T00:28:36;100916.88;;;15.01;74.10
13974;BME280;7060;43.770;4.008;2023-05-23T00:31:07;100930.00;;;15.04;74.23
13974;BME280;7060;43.770;4.008;2023-05-23T00:33:36;100848.44;;;14.55;74.00
13974;BME280;7060;43.770;4.008;2023-05-23T00:36:06;100908.97;;;15.08;74.23
13974;BME280;7060;43.770;4.008;2023-05-23T00:38:35;100913.16;;;15.10;73.76
13974;BME280;7060;43.770;4.008;2023-05-23T00:41:04;100834.81;;;14.65;73.28
13974;BME280;7060;43.770;4.008;2023-05-23T00:43:34;100845.25;;;14.68;73.58
13974;BME280;7060;43.770;4.008;2023-05-23T00:46:04;100625.75;;;13.29;73.75
13974;BME280;7060;43.770;4.008;2023-05-23T00:48:36;100927.81;;;15.08;73.94
13974;BME280;7060;43.770;4.008;2023-05-23T00:51:13;100744.22;;;14.08;74.19
13974;BME280;7060;43.770;4.008;2023-05-23T00:53:42;100853.66;;;14.73;74.27
13974;BME280;7060;43.770;4.008;2023-05-23T00:56:11;100868.63;;;14.83;74.22
13974;BME280;7060;43.770;4.008;2023-05-23T00:58:41;100927.78;;;15.16;74.67
13974;BME280;7060;43.770;4.008;2023-05-23T01:01:10;100933.16;;;15.16;74.76
13974;BME280;7060;43.770;4.008;2023-05-23T01:03:42;100883.91;;;14.99;74.64
13974;BME280;7060;43.770;4.008;2023-05-23T01:06:16;100772.13;;;14.32;74.65
13974;BME280;7060;43.770;4.008;2023-05-23T01:08:51;100840.38;;;14.79;74.35
13974;BME280;7060;43.770;4.008;2023-05-23T01:11:27;100901.69;;;15.16;74.09
13974;BME280;7060;43.770;4.008;2023-05-23T01:14:02;100807.41;;;14.61;74.25
13974;BME280;7060;43.770;4.008;2023-05-23T01:16:38;100882.88;;;14.92;74.26
13974;BME280;7060;43.770;4.008;2023-05-23T01:19:22;100598.22;;;13.27;74.07
13974;BME280;7060;43.770;4.008;2023-05-23T01:22:02;100837.50;;;14.73;74.14
13974;BME280;7060;43.770;4.008;2023-05-23T01:24:40;100782.69;;;14.41;74.28
13974;BME280;7060;43.770;4.008;2023-05-23T01:27:23;100899.38;;;15.05;74.10
13974;BME280;7060;43.770;4.008;2023-05-23T01:29:59;100645.97;;;13.49;74.30
13974;BME280;7060;43.770;4.008;2023-05-23T01:32:30;100659.56;;;13.64;74.00
13974;BME280;7060;43.770;4.008;2023-05-23T01:35:02;100758.81;;;14.14;74.03
13974;BME280;7060;43.770;4.008;2023-05-23T01:37:32;100796.97;;;14.50;73.91
13974;BME280;7060;43.770;4.008;2023-05-23T01:40:07;100882.56;;;14.95;74.22
13974;BME280;7060;43.770;4.008;2023-05-23T01:42:36;100850.44;;;14.61;74.40
13974;BME280;7060;43.770;4.008;2023-05-23T01:45:08;100615.69;;;13.31;74.37
13974;BME280;7060;43.770;4.008;2023-05-23T01:47:38;100808.06;;;14.39;74.30
13974;BME280;7060;43.770;4.008;2023-05-23T01:50:11;100835.16;;;14.62;74.13
13974;BME280;7060;43.770;4.008;2023-05-23T01:52:41;100807.22;;;14.46;74.34
13974;BME280;7060;43.770;4.008;2023-05-23T01:55:16;100797.97;;;14.33;74.06
13974;BME280;7060;43.770;4.008;2023-05-23T01:57:50;100661.56;;;13.45;74.27
13974;BME280;7060;43.770;4.008;2023-05-23T02:00:30;100731.09;;;13.81;74.05
13974;BME280;7060;43.770;4.008;2023-05-23T02:02:59;100710.94;;;13.69;74.70
13974;BME280;7060;43.770;4.008;2023-05-23T02:05:29;100716.00;;;13.72;75.21
13974;BME280;7060;43.770;4.008;2023-05-23T02:08:00;100873.00;;;14.68;75.12
13974;BME280;7060;43.770;4.008;2023-05-23T02:10:33;100734.81;;;13.96;75.10
13974;BME280;7060;43.770;4.008;2023-05-23T02:13:02;100807.72;;;14.34;74.97
13974;BME280;7060;43.770;4.008;2023-05-23T02:15:48;100710.78;;;13.95;74.51
13974;BME280;7060;43.770;4.008;2023-05-23T02:18:18;100877.34;;;14.94;74.57
13974;BME280;7060;43.770;4.008;2023-05-23T02:20:51;100896.84;;;14.96;74.52
13974;BME280;7060;43.770;4.008;2023-05-23T02:23:21;100872.78;;;14.94;74.35
13974;BME280;7060;43.770;4.008;2023-05-23T02:25:54;100865.72;;;14.93;74.21
13974;BME280;7060;43.770;4.008;2023-05-23T02:28:23;100862.38;;;14.91;74.09
13974;BME280;7060;43.770;4.008;2023-05-23T02:30:58;100589.84;;;13.13;73.54
13974;BME280;7060;43.770;4.008;2023-05-23T02:33:28;100706.91;;;13.89;73.88
13974;BME280;7060;43.770;4.008;2023-05-23T02:36:03;100690.78;;;13.81;73.86
13974;BME280;7060;43.770;4.008;2023-05-23T02:38:34;100653.66;;;13.52;73.75
13974;BME280;7060;43.770;4.008;2023-05-23T02:41:08;100768.59;;;14.23;73.84
13974;BME280;7060;43.770;4.008;2023-05-23T02:43:37;100794.94;;;14.36;74.05
13974;BME280;7060;43.770;4.008;2023-05-23T02:46:08;100698.34;;;13.77;73.92
13974;BME280;7060;43.770;4.008;2023-05-23T02:48:38;100784.53;;;14.16;73.64
13974;BME280;7060;43.770;4.008;2023-05-23T02:51:16;100869.28;;;14.53;73.62
13974;BME280;7060;43.770;4.008;2023-05-23T02:53:47;100863.22;;;14.51;73.95
13974;BME280;7060;43.770;4.008;2023-05-23T02:56:16;100679.38;;;13.46;73.97
13974;BME280;7060;43.770;4.008;2023-05-23T02:58:49;100744.72;;;13.87;73.94
13974;BME280;7060;43.770;4.008;2023-05-23T03:01:21;100766.03;;;14.05;74.06
13974;BME280;7060;43.770;4.008;2023-05-23T03:04:03;100865.13;;;14.59;73.52
13974;BME280;7060;43.770;4.008;2023-05-23T03:06:33;100847.94;;;14.60;73.55
13974;BME280;7060;43.770;4.008;2023-05-23T03:09:10;100561.63;;;12.85;73.03
13974;BME280;7060;43.770;4.008;2023-05-23T03:11:40;100849.81;;;14.59;73.09
13974;BME280;7060;43.770;4.008;2023-05-23T03:14:26;100819.84;;;14.30;72.75
13974;BME280;7060;43.770;4.008;2023-05-23T03:16:56;100703.72;;;13.61;72.86
13974;BME280;7060;43.770;4.008;2023-05-23T03:19:27;100525.28;;;12.40;72.72
13974;BME280;7060;43.770;4.008;2023-05-23T03:21:58;100621.84;;;12.91;72.90
13974;BME280;7060;43.770;4.008;2023-05-23T03:24:29;100762.03;;;13.93;73.26
13974;BME280;7060;43.770;4.008;2023-05-23T03:27:04;100849.41;;;14.38;73.38
13974;BME280;7060;43.770;4.008;2023-05-23T03:29:42;100764.19;;;13.89;73.51
13974;BME280;7060;43.770;4.008;2023-05-23T03:32:12;100841.69;;;14.27;74.23
13974;BME280;7060;43.770;4.008;2023-05-23T03:34:45;100769.75;;;13.88;74.32
13974;BME280;7060;43.770;4.008;2023-05-23T03:37:14;100846.59;;;14.31;74.45
13974;BME280;7060;43.770;4.008;2023-05-23T03:39:43;100773.63;;;13.94;74.29
13974;BME280;7060;43.770;4.008;2023-05-23T03:42:13;100693.75;;;13.37;74.27
13974;BME280;7060;43.770;4.008;2023-05-23T03:44:48;100604.41;;;12.95;74.00
13974;BME280;7060;43.770;4.008;2023-05-23T03:47:19;100807.22;;;14.14;74.17
13974;BME280;7060;43.770;4.008;2023-05-23T03:49:49;100808.56;;;14.18;73.88
13974;BME280;7060;43.770;4.008;2023-05-23T03:52:38;100832.28;;;14.31;73.55
13974;BME280;7060;43.770;4.008;2023-05-23T03:55:08;100699.59;;;13.33;74.02
13974;BME280;7060;43.770;4.008;2023-05-23T03:57:43;100860.84;;;14.23;74.22
13974;BME280;7060;43.770;4.008;2023-05-23T04:00:12;100758.50;;;13.76;74.00
13974;BME280;7060;43.770;4.008;2023-05-23T04:02:53;100650.09;;;13.19;73.97
13974;BME280;7060;43.770;4.008;2023-05-23T04:05:27;100668.56;;;13.30;74.08
13974;BME280;7060;43.770;4.008;2023-05-23T04:07:57;100831.53;;;15.10;70.49
13974;BME280;7060;43.770;4.008;2023-05-23T04:10:28;100832.28;;;14.63;71.59
13974;BME280;7060;43.770;4.008;2023-05-23T04:12:57;100654.13;;;13.31;72.40
13974;BME280;7060;43.770;4.008;2023-05-23T04:15:26;100834.13;;;14.30;72.89
13974;BME280;7060;43.770;4.008;2023-05-23T04:18:05;100833.47;;;14.28;73.08
13974;BME280;7060;43.770;4.008;2023-05-23T04:20:35;100711.41;;;13.56;73.02
13974;BME280;7060;43.770;4.008;2023-05-23T04:23:04;100842.53;;;14.35;72.89
13974;BME280;7060;43.770;4.008;2023-05-23T04:25:36;100839.84;;;14.35;72.97
13974;BME280;7060;43.770;4.008;2023-05-23T04:28:13;100833.13;;;14.31;72.83
13974;BME280;7060;43.770;4.008;2023-05-23T04:30:44;100680.88;;;13.49;72.55
13974;BME280;7060;43.770;4.008;2023-05-23T04:33:20;100840.34;;;14.47;72.84
13974;BME280;7060;43.770;4.008;2023-05-23T04:35:49;100800.84;;;14.23;72.92
13974;BME280;7060;43.770;4.008;2023-05-23T04:38:19;100847.44;;;14.56;72.61
13974;BME280;7060;43.770;4.008;2023-05-23T04:40:49;100846.75;;;14.62;72.74
13974;BME280;7060;43.770;4.008;2023-05-23T04:43:37;100848.94;;;14.67;72.62
13974;BME280;7060;43.770;4.008;2023-05-23T04:46:19;100806.38;;;14.46;72.50
13974;BME280;7060;43.770;4.008;2023-05-23T04:49:10;100852.81;;;14.72;72.42
13974;BME280;7060;43.770;4.008;2023-05-23T04:51:40;100859.53;;;14.76;72.23
13974;BME280;7060;43.770;4.008;2023-05-23T04:54:16;100866.94;;;14.82;72.16
13974;BME280;7060;43.770;4.008;2023-05-23T04:56:44;100860.84;;;14.88;72.28
13974;BME280;7060;43.770;4.008;2023-05-23T04:59:15;100756.81;;;14.24;71.78
13974;BME280;7060;43.770;4.008;2023-05-23T05:01:44;100868.25;;;15.03;72.03
13974;BME280;7060;43.770;4.008;2023-05-23T05:04:14;100867.22;;;15.12;72.01
13974;BME280;7060;43.770;4.008;2023-05-23T05:06:44;100872.56;;;15.20;72.15
13974;BME280;7060;43.770;4.008;2023-05-23T05:09:14;100719.50;;;14.29;72.06
13974;BME280;7060;43.770;4.008;2023-05-23T05:11:43;100870.00;;;15.35;71.91
13974;BME280;7060;43.770;4.008;2023-05-23T05:14:12;100852.00;;;15.35;71.60
13974;BME280;7060;43.770;4.008;2023-05-23T05:16:42;100866.91;;;15.54;71.03
13974;BME280;7060;43.770;4.008;2023-05-23T05:19:13;100787.75;;;15.16;70.50
13974;BME280;7060;43.770;4.008;2023-05-23T05:21:42;100866.81;;;15.78;70.44
13974;BME280;7060;43.770;4.008;2023-05-23T05:24:11;100858.50;;;15.88;70.22
13974;BME280;7060;43.770;4.008;2023-05-23T05:26:41;100829.25;;;15.77;69.45
13974;BME280;7060;43.770;4.008;2023-05-23T05:29:09;100864.94;;;16.10;68.92
13974;BME280;7060;43.770;4.008;2023-05-23T05:31:40;100866.69;;;16.25;67.96
13974;BME280;7060;43.770;4.008;2023-05-23T05:34:09;100866.22;;;16.45;67.18
13974;BME280;7060;43.770;4.008;2023-05-23T05:36:40;100853.09;;;16.65;66.59
13974;BME280;7060;43.770;4.008;2023-05-23T05:39:16;100859.09;;;16.89;65.85
13974;BME280;7060;43.770;4.008;2023-05-23T05:41:44;100859.97;;;17.05;65.24
13974;BME280;7060;43.770;4.008;2023-05-23T05:44:13;100861.66;;;17.20;64.04
13974;BME280;7060;43.770;4.008;2023-05-23T05:46:44;100862.56;;;17.42;63.09
13974;BME280;7060;43.770;4.008;2023-05-23T05:49:13;100859.59;;;17.67;62.01
13974;BME280;7060;43.770;4.008;2023-05-23T05:51:45;100781.28;;;17.44;61.02
13974;BME280;7060;43.770;4.008;2023-05-23T05:54:14;100831.97;;;18.07;60.89
13974;BME280;7060;43.770;4.008;2023-05-23T05:56:45;100849.13;;;18.57;60.96
13974;BME280;7060;43.770;4.008;2023-05-23T05:59:15;100859.84;;;18.93;59.53
13974;BME280;7060;43.770;4.008;2023-05-23T06:01:43;100862.22;;;19.37;57.41
13974;BME280;7060;43.770;4.008;2023-05-23T06:04:12;100849.69;;;19.71;56.07
13974;BME280;7060;43.770;4.008;2023-05-23T06:06:42;100854.41;;;20.16;54.48
13974;BME280;7060;43.770;4.008;2023-05-23T06:09:12;100859.50;;;20.46;53.71
13974;BME280;7060;43.770;4.008;2023-05-23T06:11:42;100858.66;;;20.65;52.70
13974;BME280;7060;43.770;4.008;2023-05-23T06:14:10;100690.69;;;19.89;52.06
13974;BME280;7060;43.770;4.008;2023-05-23T06:16:43;100850.25;;;21.26;51.61
13974;BME280;7060;43.770;4.008;2023-05-23T06:19:12;100776.69;;;21.08;50.79
13974;BME280;7060;43.770;4.008;2023-05-23T06:21:41;100852.59;;;21.74;49.86
13974;BME280;7060;43.770;4.008;2023-05-23T06:24:12;100855.06;;;21.95;49.52
13974;BME280;7060;43.770;4.008;2023-05-23T06:26:40;100791.28;;;21.78;48.47
13974;BME280;7060;43.770;4.008;2023-05-23T06:29:09;100854.50;;;22.18;48.10
13974;BME280;7060;43.770;4.008;2023-05-23T06:31:38;100857.53;;;22.35;48.29
13974;BME280;7060;43.770;4.008;2023-05-23T06:34:06;100853.53;;;22.69;46.92
13974;BME280;7060;43.770;4.008;2023-05-23T06:36:35;100852.19;;;22.78;46.71
13974;BME280;7060;43.770;4.008;2023-05-23T06:39:04;100859.13;;;22.99;47.23
13974;BME280;7060;43.770;4.008;2023-05-23T06:41:38;100851.94;;;23.29;46.58
13974;BME280;7060;43.770;4.008;2023-05-23T06:44:06;100850.13;;;23.59;46.16
13974;BME280;7060;43.770;4.008;2023-05-23T06:46:39;100849.47;;;23.76;45.99
13974;BME280;7060;43.770;4.008;2023-05-23T06:49:08;100853.47;;;24.10;45.13
13974;BME280;7060;43.770;4.008;2023-05-23T06:51:43;100749.47;;;23.63;44.88
13974;BME280;7060;43.770;4.008;2023-05-23T06:54:16;100831.16;;;24.24;43.79
13974;BME280;7060;43.770;4.008;2023-05-23T06:56:46;100849.09;;;24.62;44.16
13974;BME280;7060;43.770;4.008;2023-05-23T06:59:15;100856.13;;;24.81;44.49
13974;BME280;7060;43.770;4.008;2023-05-23T07:01:44;100828.66;;;25.00;44.97
13974;BME280;7060;43.770;4.008;2023-05-23T07:04:14;100857.56;;;25.42;43.29
13974;BME280;7060;43.770;4.008;2023-05-23T07:06:42;100860.06;;;25.44;43.21
13974;BME280;7060;43.770;4.008;2023-05-23T07:09:11;100778.59;;;25.11;41.42
13974;BME280;7060;43.770;4.008;2023-05-23T07:11:40;100821.63;;;25.27;41.79
13974;BME280;7060;43.770;4.008;2023-05-23T07:14:11;100859.34;;;25.48;42.57
13974;BME280;7060;43.770;4.008;2023-05-23T07:16:41;100859.06;;;25.61;42.41
13974;BME280;7060;43.770;4.008;2023-05-23T07:19:10;100863.88;;;25.83;41.81
13974;BME280;7060;43.770;4.008;2023-05-23T07:21:50;100858.16;;;25.84;42.34
13974;BME280;7060;43.770;4.008;2023-05-23T07:24:19;100855.88;;;25.93;42.36
13974;BME280;7060;43.770;4.008;2023-05-23T07:26:51;100807.16;;;25.67;42.37
13974;BME280;7060;43.770;4.008;2023-05-23T07:29:22;100861.75;;;26.13;42.40
13974;BME280;7060;43.770;4.008;2023-05-23T07:31:52;100769.56;;;25.62;42.22
13974;BME280;7060;43.770;4.008;2023-05-23T07:34:22;100859.47;;;26.22;42.68
13974;BME280;7060;43.770;4.008;2023-05-23T07:36:55;100858.88;;;26.20;42.28
13974;BME280;7060;43.770;4.008;2023-05-23T07:39:26;100862.44;;;26.20;42.52
13974;BME280;7060;43.770;4.008;2023-05-23T07:41:56;100862.59;;;26.14;42.07
13974;BME280;7060;43.770;4.008;2023-05-23T07:44:27;100860.69;;;26.14;42.33
13974;BME280;7060;43.770;4.008;2023-05-23T07:46:56;100857.84;;;26.09;43.09
13974;BME280;7060;43.770;4.008;2023-05-23T07:49:25;100863.72;;;26.29;43.00
13974;BME280;7060;43.770;4.008;2023-05-23T07:51:54;100869.47;;;26.45;42.88
13974;BME280;7060;43.770;4.008;2023-05-23T07:54:22;100868.47;;;26.34;41.96
13974;BME280;7060;43.770;4.008;2023-05-23T07:56:55;100872.25;;;26.16;41.89
13974;BME280;7060;43.770;4.008;2023-05-23T07:59:24;100863.09;;;26.11;42.03
13974;BME280;7060;43.770;4.008;2023-05-23T08:01:55;100868.16;;;26.02;43.06
13974;BME280;7060;43.770;4.008;2023-05-23T08:04:25;100862.66;;;26.02;43.63
13974;BME280;7060;43.770;4.008;2023-05-23T08:06:55;100869.47;;;26.00;44.12
13974;BME280;7060;43.770;4.008;2023-05-23T08:09:45;100864.56;;;26.02;43.59
13974;BME280;7060;43.770;4.008;2023-05-23T08:12:17;100724.44;;;25.24;44.23
13974;BME280;7060;43.770;4.008;2023-05-23T08:14:50;100600.81;;;24.47;43.83
13974;BME280;7060;43.770;4.008;2023-05-23T08:17:23;100865.31;;;25.97;43.79
13974;BME280;7060;43.770;4.008;2023-05-23T08:19:55;100864.34;;;25.91;44.47
13974;BME280;7060;43.770;4.008;2023-05-23T08:22:24;100862.81;;;25.84;43.41
13974;BME280;7060;43.770;4.008;2023-05-23T08:24:53;100742.91;;;25.06;44.05
13974;BME280;7060;43.770;4.008;2023-05-23T08:27:22;100861.72;;;25.85;42.85
13974;BME280;7060;43.770;4.008;2023-05-23T08:29:56;100808.75;;;25.51;43.05
13974;BME280;7060;43.770;4.008;2023-05-23T08:32:26;100860.00;;;25.79;43.16
13974;BME280;7060;43.770;4.008;2023-05-23T08:34:55;100860.50;;;25.64;43.70
13974;BME280;7060;43.770;4.008;2023-05-23T08:37:23;100865.03;;;25.58;43.88
13974;BME280;7060;43.770;4.008;2023-05-23T08:39:52;100871.81;;;25.56;43.71
13974;BME280;7060;43.770;4.008;2023-05-23T08:42:38;100860.53;;;25.52;43.62
13974;BME280;7060;43.770;4.008;2023-05-23T08:45:09;100862.16;;;25.53;44.30
13974;BME280;7060;43.770;4.008;2023-05-23T08:47:41;100869.44;;;25.59;44.71
13974;BME280;7060;43.770;4.008;2023-05-23T08:50:11;100746.75;;;24.81;44.48
13974;BME280;7060;43.770;4.008;2023-05-23T08:52:43;100793.69;;;25.13;45.32
13974;BME280;7060;43.770;4.008;2023-05-23T08:55:13;100860.38;;;25.59;44.19
13974;BME280;7060;43.770;4.008;2023-05-23T08:57:45;100860.88;;;25.56;44.74
13974;BME280;7060;43.770;4.008;2023-05-23T09:00:27;100860.53;;;25.52;44.58
13974;BME280;7060;43.770;4.008;2023-05-23T09:02:57;100863.41;;;25.46;45.23
13974;BME280;7060;43.770;4.008;2023-05-23T09:05:49;100777.91;;;24.92;45.07
13974;BME280;7060;43.770;4.008;2023-05-23T09:08:19;100862.16;;;25.53;44.91
13974;BME280;7060;43.770;4.008;2023-05-23T09:10:49;100859.91;;;25.62;45.34
13974;BME280;7060;43.770;4.008;2023-05-23T09:13:20;100855.97;;;25.70;44.29
13974;BME280;7060;43.770;4.008;2023-05-23T09:15:56;100721.19;;;24.87;45.22
13974;BME280;7060;43.770;4.008;2023-05-23T09:18:33;100861.13;;;25.83;45.97
13974;BME280;7060;43.770;4.008;2023-05-23T09:21:03;100854.69;;;25.89;44.36
13974;BME280;7060;43.770;4.008;2023-05-23T09:23:36;100857.53;;;25.94;45.60
13974;BME280;7060;43.770;4.008;2023-05-23T09:26:10;100848.63;;;25.99;45.01
13974;BME280;7060;43.770;4.008;2023-05-23T09:28:41;100797.63;;;25.69;44.49
13974;BME280;7060;43.770;4.008;2023-05-23T09:31:13;100767.47;;;25.52;44.84
13974;BME280;7060;43.770;4.008;2023-05-23T09:33:45;100767.75;;;25.68;44.83
13974;BME280;7060;43.770;4.008;2023-05-23T09:36:16;100802.16;;;25.92;44.30
13974;BME280;7060;43.770;4.008;2023-05-23T09:38:47;100851.19;;;26.34;44.79
13974;BME280;7060;43.770;4.008;2023-05-23T09:41:18;100822.88;;;26.28;44.66
13974;BME280;7060;43.770;4.008;2023-05-23T09:43:51;100842.41;;;26.48;43.76
13974;BME280;7060;43.770;4.008;2023-05-23T09:46:20;100839.91;;;26.47;43.96
13974;BME280;7060;43.770;4.008;2023-05-23T09:48:51;100842.97;;;26.50;43.64
13974;BME280;7060;43.770;4.008;2023-05-23T09:51:23;100814.16;;;26.31;43.98
13974;BME280;7060;43.770;4.008;2023-05-23T09:53:53;100854.66;;;26.74;43.89
13974;BME280;7060;43.770;4.008;2023-05-23T09:56:23;100854.06;;;26.89;43.73
13974;BME280;7060;43.770;4.008;2023-05-23T09:58:55;100837.28;;;26.85;42.78
13974;BME280;7060;43.770;4.008;2023-05-23T10:01:30;100846.38;;;27.08;43.00
13974;BME280;7060;43.770;4.008;2023-05-23T10:04:02;100671.00;;;26.07;43.06
13974;BME280;7060;43.770;4.008;2023-05-23T10:06:40;100632.72;;;25.95;43.46
13974;BME280;7060;43.770;4.008;2023-05-23T10:09:12;100825.56;;;27.28;43.49
13974;BME280;7060;43.770;4.008;2023-05-23T10:15:02;100838.22;;;27.29;42.99
13974;BME280;7060;43.770;4.008;2023-05-23T10:17:41;100730.22;;;26.80;42.36
13974;BME280;7060;43.770;4.008;2023-05-23T10:20:17;100765.47;;;27.10;42.30
13974;BME280;7060;43.770;4.008;2023-05-23T10:22:48;100832.72;;;27.51;42.55
13974;BME280;7060;43.770;4.008;2023-05-23T10:25:18;100674.69;;;26.35;42.39
13974;BME280;7060;43.770;4.008;2023-05-23T10:27:48;100829.41;;;27.27;43.06
13974;BME280;7060;43.770;4.008;2023-05-23T10:30:26;100810.25;;;27.33;43.36
13974;BME280;7060;43.770;4.008;2023-05-23T10:32:58;100795.78;;;27.37;42.34
13974;BME280;7060;43.770;4.008;2023-05-23T10:35:40;100714.94;;;27.06;42.27
13974;BME280;7060;43.770;4.008;2023-05-23T10:38:27;100799.97;;;27.67;41.84
13974;BME280;7060;43.770;4.008;2023-05-23T10:41:05;100813.53;;;27.78;41.61
13974;BME280;7060;43.770;4.008;2023-05-23T10:43:44;100696.16;;;26.76;42.66
13974;BME280;7060;43.770;4.008;2023-05-23T10:46:19;100680.84;;;26.80;43.29
13974;BME280;7060;43.770;4.008;2023-05-23T10:48:53;100807.44;;;27.71;42.60
13974;BME280;7060;43.770;4.008;2023-05-23T10:51:38;100742.63;;;27.48;41.59
13974;BME280;7060;43.770;4.008;2023-05-23T10:54:10;100770.41;;;27.79;42.21
13974;BME280;7060;43.770;4.008;2023-05-23T10:56:39;100767.50;;;27.85;42.91
13974;BME280;7060;43.770;4.008;2023-05-23T10:59:19;100643.91;;;27.10;44.23
13974;BME280;7060;43.770;4.008;2023-05-23T11:01:50;100760.16;;;27.91;42.14
13974;BME280;7060;43.770;4.008;2023-05-23T11:04:24;100458.91;;;26.08;42.22
13974;BME280;7060;43.770;4.008;2023-05-23T11:06:56;100789.56;;;28.22;41.65
13974;BME280;7060;43.770;4.008;2023-05-23T11:09:25;100783.50;;;28.20;42.32
13974;BME280;7060;43.770;4.008;2023-05-23T11:12:02;100783.91;;;28.07;42.02
13974;BME280;7060;43.770;4.008;2023-05-23T11:14:47;100788.50;;;27.96;41.86
13974;BME280;7060;43.770;4.008;2023-05-23T11:17:30;100781.09;;;27.75;42.45
13974;BME280;7060;43.770;4.008;2023-05-23T11:20:05;100679.75;;;27.03;43.36
13974;BME280;7060;43.770;4.008;2023-05-23T11:22:37;100782.41;;;27.68;42.19
13974;BME280;7060;43.770;4.008;2023-05-23T11:25:07;100707.91;;;27.37;42.09
13974;BME280;7060;43.770;4.008;2023-05-23T11:27:37;100776.75;;;28.06;41.12
13974;BME280;7060;43.770;4.008;2023-05-23T11:30:08;100768.53;;;28.06;41.03
13974;BME280;7060;43.770;4.008;2023-05-23T11:32:41;100777.72;;;27.90;42.06
13974;BME280;7060;43.770;4.008;2023-05-23T11:35:10;100613.94;;;26.59;42.83
13974;BME280;7060;43.770;4.008;2023-05-23T11:37:43;100779.69;;;27.73;42.96
13974;BME280;7060;43.770;4.008;2023-05-23T11:40:27;100769.78;;;27.93;42.14
13974;BME280;7060;43.770;4.008;2023-05-23T11:42:56;100727.63;;;27.83;41.84
13974;BME280;7060;43.770;4.008;2023-05-23T11:45:28;100672.03;;;27.44;42.32
13974;BME280;7060;43.770;4.008;2023-05-23T11:48:04;100685.91;;;27.32;41.72
13974;BME280;7060;43.770;4.008;2023-05-23T11:50:42;100647.53;;;26.93;42.96
13974;BME280;7060;43.770;4.008;2023-05-23T11:53:15;100561.19;;;26.14;42.41
13974;BME280;7060;43.770;4.008;2023-05-23T11:55:48;100715.59;;;27.18;42.11
13974;BME280;7060;43.770;4.008;2023-05-23T11:58:20;100680.66;;;26.87;42.97
13974;BME280;7060;43.770;4.008;2023-05-23T12:00:49;100746.47;;;27.25;43.95
13974;BME280;7060;43.770;4.008;2023-05-23T12:03:21;100748.75;;;27.55;41.72
13974;BME280;7060;43.770;4.008;2023-05-23T12:05:50;100756.63;;;27.74;41.87
13974;BME280;7060;43.770;4.008;2023-05-23T12:08:21;100751.34;;;27.67;40.55
13974;BME280;7060;43.770;4.008;2023-05-23T12:10:51;100749.06;;;27.59;40.00
13974;BME280;7060;43.770;4.008;2023-05-23T12:13:23;100751.94;;;27.69;40.12
13974;BME280;7060;43.770;4.008;2023-05-23T12:15:54;100737.03;;;27.87;39.73
13974;BME280;7060;43.770;4.008;2023-05-23T12:18:24;100740.50;;;28.09;42.47
13974;BME280;7060;43.770;4.008;2023-05-23T12:20:52;100611.38;;;27.50;41.15
13974;BME280;7060;43.770;4.008;2023-05-23T12:23:26;100735.22;;;28.35;40.01
13974;BME280;7060;43.770;4.008;2023-05-23T12:26:03;100688.91;;;28.16;39.33
13974;BME280;7060;43.770;4.008;2023-05-23T12:28:34;100723.78;;;28.43;40.13
13974;BME280;7060;43.770;4.008;2023-05-23T12:31:15;100727.53;;;28.37;41.26
13974;BME280;7060;43.770;4.008;2023-05-23T12:33:45;100734.44;;;28.07;39.77
13974;BME280;7060;43.770;4.008;2023-05-23T12:36:21;100732.75;;;28.01;41.78
13974;BME280;7060;43.770;4.008;2023-05-23T12:39:03;100731.81;;;28.17;40.95
13974;BME280;7060;43.770;4.008;2023-05-23T12:41:32;100726.38;;;28.27;39.82
13974;BME280;7060;43.770;4.008;2023-05-23T12:44:01;100725.78;;;28.20;38.62
13974;BME280;7060;43.770;4.008;2023-05-23T12:46:30;100706.44;;;28.10;38.40
13974;BME280;7060;43.770;4.008;2023-05-23T12:48:58;100712.34;;;28.29;38.56
13974;BME280;7060;43.770;4.008;2023-05-23T12:51:27;100711.16;;;28.47;38.58
13974;BME280;7060;43.770;4.008;2023-05-23T12:53:56;100713.16;;;28.61;37.59
13974;BME280;7060;43.770;4.008;2023-05-23T12:56:26;100460.97;;;27.20;38.63
13974;BME280;7060;43.770;4.008;2023-05-23T12:58:54;100707.53;;;28.88;37.35
13974;BME280;7060;43.770;4.008;2023-05-23T13:01:23;100704.81;;;28.93;37.85
13974;BME280;7060;43.770;4.008;2023-05-23T13:03:51;100701.63;;;29.07;36.99
13974;BME280;7060;43.770;4.008;2023-05-23T13:06:20;100463.81;;;27.73;36.96
13974;BME280;7060;43.770;4.008;2023-05-23T13:08:49;100701.91;;;29.20;37.68
13974;BME280;7060;43.770;4.008;2023-05-23T13:11:20;100692.78;;;29.10;37.71
13974;BME280;7060;43.770;4.008;2023-05-23T13:13:53;100679.44;;;28.86;39.08
13974;BME280;7060;43.770;4.008;2023-05-23T13:16:22;100677.75;;;28.70;39.52
13974;BME280;7060;43.770;4.008;2023-05-23T13:18:51;100675.72;;;28.50;38.89
13974;BME280;7060;43.770;4.008;2023-05-23T13:21:19;100672.25;;;28.33;40.32
13974;BME280;7060;43.770;4.008;2023-05-23T13:23:49;100675.22;;;28.21;39.76
13974;BME280;7060;43.770;4.008;2023-05-23T13:26:18;100664.53;;;28.30;40.24
13974;BME280;7060;43.770;4.008;2023-05-23T13:28:46;100660.56;;;28.48;38.28